Williamstown, Iowa
Current Conditions -  °F | °C
As of 2:15 PM on Monday 24 Nov 2014 (Local Time) from KAWG Reporting Station
Overcast Overcast  
Wind Chill: 13°   Ceiling: 1700
Heat Index: 27°   Visibility: 9mi
Dew Point: 27°   Wind: 21mph
Humidity: 100%   Direction: 280°W
Pressure: 29.65"   Gusts: 30mph
Location:  41.4676°N, 91.7053°W
Report Text: KAWG 242015Z AUTO 28018G26KT 9SM OVC017 M03/M03 A2965 RMK AO2
Loading
Personal Weather Stations






























Interactive Weather Map New forecast layout! Learn more

10-Day Weather Forecast

Advertisements
Track Severe Weather on mobile